createdAt,value
2023-05-09T00:00:42.869Z,3.70
2023-05-09T00:03:12.994Z,3.30
2023-05-09T00:05:42.678Z,3.05
2023-05-09T00:08:12.535Z,3.45
2023-05-09T00:10:42.199Z,3.08
2023-05-09T00:13:12.317Z,2.97
2023-05-09T00:15:44.506Z,3.38
2023-05-09T00:18:14.432Z,3.00
2023-05-09T00:20:44.591Z,3.72
2023-05-09T00:23:14.071Z,2.90
2023-05-09T00:25:43.588Z,3.22
2023-05-09T00:28:13.324Z,3.03
2023-05-09T00:30:45.400Z,2.85
2023-05-09T00:33:14.960Z,3.47
2023-05-09T00:35:44.498Z,3.35
2023-05-09T00:38:13.977Z,3.10
2023-05-09T00:40:43.674Z,3.33
2023-05-09T00:43:13.168Z,2.92
2023-05-09T00:45:45.729Z,3.40
2023-05-09T00:48:15.441Z,3.88
2023-05-09T00:50:45.831Z,2.92
2023-05-09T00:53:16.027Z,2.88
2023-05-09T00:55:45.704Z,3.33
2023-05-09T00:58:15.753Z,3.08
2023-05-09T01:00:48.167Z,3.30
2023-05-09T01:03:18.060Z,3.08
2023-05-09T01:05:57.979Z,3.53
2023-05-09T01:08:38.409Z,3.70
2023-05-09T01:11:14.075Z,3.70
2023-05-09T01:13:52.477Z,3.77
2023-05-09T01:16:33.931Z,3.40
2023-05-09T01:19:13.171Z,3.40
2023-05-09T01:21:46.793Z,3.73
2023-05-09T01:24:28.462Z,3.50
2023-05-09T01:27:20.298Z,3.63
2023-05-09T01:29:58.722Z,3.40
2023-05-09T01:32:30.186Z,3.90
2023-05-09T01:35:04.616Z,3.90
2023-05-09T01:37:36.349Z,3.73
2023-05-09T01:40:10.548Z,3.50
2023-05-09T01:42:45.357Z,3.70
2023-05-09T01:45:19.105Z,3.90
2023-05-09T01:47:49.961Z,3.80
2023-05-09T01:50:21.488Z,4.47
2023-05-09T01:52:53.626Z,3.80
2023-05-09T01:55:25.726Z,3.43
2023-05-09T01:57:56.800Z,3.90
2023-05-09T02:00:29.918Z,3.63
2023-05-09T02:03:00.711Z,3.90
2023-05-09T02:05:33.148Z,4.03
2023-05-09T02:08:04.033Z,4.20
2023-05-09T02:10:36.659Z,4.00
2023-05-09T02:13:07.750Z,4.03
2023-05-09T02:15:40.221Z,4.00
2023-05-09T02:18:09.698Z,4.20
2023-05-09T02:20:39.208Z,3.80
2023-05-09T02:23:09.074Z,4.07
2023-05-09T02:25:39.185Z,3.77
2023-05-09T02:28:10.130Z,4.50
2023-05-09T02:30:46.083Z,3.77
2023-05-09T02:33:16.793Z,3.97
2023-05-09T02:35:48.422Z,4.17
2023-05-09T02:38:19.316Z,4.07
2023-05-09T02:40:52.299Z,3.87
2023-05-09T02:43:22.216Z,3.73
2023-05-09T02:45:54.308Z,3.40
2023-05-09T02:48:23.808Z,4.60
2023-05-09T02:50:53.246Z,4.50
2023-05-09T02:53:22.751Z,4.60
2023-05-09T02:55:53.999Z,4.07
2023-05-09T02:58:23.488Z,4.20
2023-05-09T03:00:55.495Z,4.53
2023-05-09T03:03:25.640Z,4.22
2023-05-09T03:05:55.122Z,4.00
2023-05-09T03:08:24.859Z,4.17
2023-05-09T03:10:54.344Z,4.90
2023-05-09T03:13:24.480Z,4.17
2023-05-09T03:15:56.609Z,4.23
2023-05-09T03:18:26.577Z,4.20
2023-05-09T03:20:56.027Z,4.50
2023-05-09T03:23:25.619Z,3.93
2023-05-09T03:25:55.343Z,4.30
2023-05-09T03:28:24.862Z,4.33
2023-05-09T03:30:57.590Z,4.40
2023-05-09T03:33:29.900Z,3.93
2023-05-09T03:36:00.393Z,4.77
2023-05-09T03:38:30.061Z,4.03
2023-05-09T03:40:59.532Z,4.43
2023-05-09T03:43:29.194Z,4.67
2023-05-09T03:46:01.717Z,4.17
2023-05-09T03:48:31.258Z,4.78
2023-05-09T03:51:01.026Z,4.23
2023-05-09T03:53:32.168Z,4.90
2023-05-09T03:56:01.852Z,4.27
2023-05-09T03:58:34.224Z,5.03
2023-05-09T04:01:06.561Z,5.03
2023-05-09T04:03:37.850Z,5.03
2023-05-09T04:06:08.137Z,5.00
2023-05-09T04:08:41.148Z,4.47
2023-05-09T04:11:10.626Z,4.63
2023-05-09T04:13:42.249Z,4.63
2023-05-09T04:16:31.331Z,5.43
2023-05-09T04:19:01.641Z,5.17
2023-05-09T04:21:32.016Z,5.10
2023-05-09T04:24:03.533Z,4.80
2023-05-09T04:26:41.732Z,5.57
2023-05-09T04:29:14.711Z,4.80
2023-05-09T04:31:49.172Z,5.00
2023-05-09T04:36:48.430Z,4.77
2023-05-09T04:39:17.855Z,5.23
2023-05-09T04:41:55.791Z,4.97
2023-05-09T04:44:25.294Z,5.43
2023-05-09T04:46:58.228Z,5.07
2023-05-09T04:49:27.717Z,5.17
2023-05-09T04:51:57.172Z,5.30
2023-05-09T04:54:27.076Z,5.77
2023-05-09T04:57:06.406Z,5.20
2023-05-09T04:59:43.858Z,5.30
2023-05-09T05:02:18.711Z,5.28
2023-05-09T05:04:49.363Z,5.57
2023-05-09T05:07:18.838Z,5.37
2023-05-09T05:09:48.529Z,4.90
2023-05-09T05:12:18.135Z,5.37
2023-05-09T05:14:48.392Z,5.90
2023-05-09T05:17:24.874Z,5.90
2023-05-09T05:19:55.054Z,5.63
2023-05-09T05:22:24.819Z,5.53
2023-05-09T05:24:54.384Z,5.10
2023-05-09T05:27:23.860Z,5.00
2023-05-09T05:29:53.570Z,5.33
2023-05-09T05:32:26.135Z,5.17
2023-05-09T05:34:55.693Z,5.38
2023-05-09T05:37:25.297Z,6.37
2023-05-09T05:39:55.021Z,5.20
2023-05-09T05:42:24.805Z,5.60
2023-05-09T05:44:54.276Z,5.23
2023-05-09T05:47:26.317Z,5.63
2023-05-09T05:49:56.299Z,5.70
2023-05-09T05:52:26.485Z,5.10
2023-05-09T05:54:57.119Z,5.77
2023-05-09T05:57:27.073Z,6.27
2023-05-09T05:59:56.900Z,5.80
2023-05-09T06:02:29.336Z,5.30
2023-05-09T06:04:58.879Z,5.50
2023-05-09T06:07:28.636Z,5.77
2023-05-09T06:09:58.063Z,5.73
2023-05-09T06:12:28.130Z,5.70
2023-05-09T06:14:57.657Z,5.43
2023-05-09T06:17:29.862Z,5.40
2023-05-09T06:19:59.339Z,5.03
2023-05-09T06:22:29.174Z,5.50
2023-05-09T06:24:58.710Z,5.10
2023-05-09T06:27:28.368Z,4.93
2023-05-09T06:29:57.753Z,4.60
2023-05-09T06:32:29.753Z,5.43
2023-05-09T06:34:59.243Z,5.65
2023-05-09T06:37:28.662Z,5.93
2023-05-09T06:39:58.091Z,5.37
2023-05-09T06:42:28.704Z,4.63
2023-05-09T06:44:58.246Z,4.80
2023-05-09T06:47:30.279Z,4.97
2023-05-09T06:49:59.921Z,4.80
2023-05-09T06:52:29.391Z,4.93
2023-05-09T06:54:58.776Z,5.10
2023-05-09T06:57:28.332Z,5.00
2023-05-09T06:59:57.876Z,5.40
2023-05-09T07:02:29.926Z,5.23
2023-05-09T07:04:59.430Z,4.88
2023-05-09T07:07:29.013Z,5.97
2023-05-09T07:10:10.519Z,4.73
2023-05-09T07:12:41.868Z,4.90
2023-05-09T07:15:12.979Z,5.50
2023-05-09T07:17:45.358Z,4.83
2023-05-09T07:20:15.070Z,5.25
2023-05-09T07:22:44.597Z,5.30
2023-05-09T07:25:14.199Z,4.55
2023-05-09T07:27:43.738Z,4.75
2023-05-09T07:30:14.083Z,5.10
2023-05-09T07:32:46.791Z,4.82
2023-05-09T07:35:16.426Z,4.97
2023-05-09T07:37:46.079Z,4.80
2023-05-09T07:40:16.630Z,4.70
2023-05-09T07:42:50.016Z,5.00
2023-05-09T07:45:22.098Z,5.33
2023-05-09T07:47:55.838Z,4.90
2023-05-09T07:50:25.518Z,5.13
2023-05-09T07:52:55.803Z,5.25
2023-05-09T07:55:25.285Z,5.38
2023-05-09T07:57:54.750Z,4.90
2023-05-09T08:00:24.726Z,5.22
2023-05-09T08:02:56.923Z,4.85
2023-05-09T08:05:26.475Z,4.20
2023-05-09T08:07:55.940Z,4.65
2023-05-09T08:10:26.860Z,4.55
2023-05-09T08:12:56.378Z,4.22
2023-05-09T08:15:26.068Z,4.72
2023-05-09T08:17:58.126Z,4.00
2023-05-09T08:20:27.648Z,4.45
2023-05-09T08:22:57.148Z,4.70
2023-05-09T08:25:26.671Z,4.32
2023-05-09T08:27:56.095Z,4.53
2023-05-09T08:30:25.615Z,5.00
2023-05-09T08:32:55.130Z,4.35
2023-05-09T08:35:27.509Z,4.53
2023-05-09T08:37:56.926Z,4.13
2023-05-09T08:40:26.657Z,4.70
2023-05-09T08:42:56.477Z,4.53
2023-05-09T08:45:29.482Z,4.15
2023-05-09T08:47:59.827Z,4.25
2023-05-09T08:50:32.280Z,5.13
2023-05-09T08:53:02.016Z,4.43
2023-05-09T08:55:31.872Z,4.03
2023-05-09T08:58:02.264Z,5.18
2023-05-09T09:08:05.493Z,4.72
2023-05-09T09:10:35.873Z,4.07
2023-05-09T09:13:07.406Z,4.50
2023-05-09T09:15:38.766Z,4.80
2023-05-09T09:18:10.856Z,4.13
2023-05-09T09:20:44.346Z,4.20
2023-05-09T09:23:20.754Z,4.65
2023-05-09T09:25:50.624Z,4.50
2023-05-09T09:28:20.586Z,4.70
2023-05-09T09:30:50.924Z,5.00
2023-05-09T09:33:25.585Z,4.70
2023-05-09T09:35:57.024Z,4.68
2023-05-09T09:38:31.240Z,4.38
2023-05-09T09:41:01.877Z,4.50
2023-05-09T09:43:31.961Z,4.95
2023-05-09T09:46:04.178Z,4.40
2023-05-09T09:48:35.007Z,4.28
2023-05-09T09:51:10.725Z,4.35
2023-05-09T09:53:46.971Z,4.22
2023-05-09T09:56:16.583Z,4.57
2023-05-09T09:58:46.038Z,4.25
2023-05-09T10:01:16.919Z,4.50
2023-05-09T10:03:48.083Z,4.22
2023-05-09T10:06:19.324Z,5.20
2023-05-09T10:08:51.330Z,4.65
2023-05-09T10:11:21.517Z,4.35
2023-05-09T10:13:51.108Z,4.80
2023-05-09T10:16:28.595Z,4.43
2023-05-09T10:19:06.255Z,4.38
2023-05-09T10:21:36.798Z,4.80
2023-05-09T10:24:11.676Z,4.60
2023-05-09T10:26:47.296Z,4.15
2023-05-09T10:29:23.010Z,4.80
2023-05-09T10:31:56.868Z,4.80
2023-05-09T10:34:29.000Z,4.43
2023-05-09T10:37:00.565Z,4.63
2023-05-09T10:39:33.692Z,4.63
2023-05-09T10:42:03.892Z,4.35
2023-05-09T10:44:33.510Z,4.80
2023-05-09T10:47:04.542Z,4.30
2023-05-09T10:49:36.890Z,4.03
2023-05-09T10:55:05.566Z,4.43
2023-05-09T10:57:35.269Z,4.47
2023-05-09T11:00:06.183Z,4.28
2023-05-09T11:02:35.814Z,4.60
2023-05-09T11:05:19.195Z,4.35
2023-05-09T11:07:48.922Z,4.50
2023-05-09T11:10:22.744Z,4.63
2023-05-09T11:12:59.244Z,4.57
2023-05-09T11:15:30.049Z,4.82
2023-05-09T11:18:09.846Z,4.82
2023-05-09T11:20:45.931Z,4.57
2023-05-09T11:23:18.725Z,4.60
2023-05-09T11:25:52.338Z,3.95
2023-05-09T11:28:30.975Z,4.80
2023-05-09T11:31:12.275Z,4.30
2023-05-09T11:33:43.259Z,4.47
2023-05-09T11:36:25.438Z,4.68
2023-05-09T11:39:07.778Z,4.97
2023-05-09T11:41:52.596Z,4.20
2023-05-09T11:44:31.875Z,4.18
2023-05-09T11:49:45.603Z,4.80
2023-05-09T11:54:56.457Z,4.53
2023-05-09T11:57:28.543Z,4.93
2023-05-09T11:59:58.205Z,4.35
2023-05-09T12:02:28.326Z,4.30
2023-05-09T12:04:57.863Z,4.65
2023-05-09T12:07:27.760Z,4.63
2023-05-09T12:09:57.237Z,5.45
2023-05-09T12:12:29.381Z,4.80
2023-05-09T12:14:58.832Z,4.60
2023-05-09T12:17:29.288Z,4.53
2023-05-09T12:20:05.222Z,4.57
2023-05-09T12:22:37.589Z,4.63
2023-05-09T12:25:11.585Z,4.63
2023-05-09T12:27:44.554Z,5.10
2023-05-09T12:30:16.250Z,4.63
2023-05-09T12:32:46.773Z,4.95
2023-05-09T12:35:16.539Z,4.57
2023-05-09T12:37:58.864Z,4.80
2023-05-09T12:40:28.351Z,4.80
2023-05-09T12:43:03.081Z,4.95
2023-05-09T12:45:34.856Z,4.55
2023-05-09T12:48:06.243Z,4.65
2023-05-09T12:50:38.763Z,5.40
2023-05-09T12:53:08.769Z,4.53
2023-05-09T12:55:44.038Z,4.45
2023-05-09T12:58:17.647Z,5.25
2023-05-09T13:00:48.188Z,4.82
2023-05-09T13:03:31.331Z,5.40
2023-05-09T13:06:02.597Z,5.32
2023-05-09T13:08:32.426Z,5.03
2023-05-09T13:11:14.966Z,5.38
2023-05-09T13:13:47.938Z,5.00
2023-05-09T13:16:18.000Z,5.20
2023-05-09T13:18:47.544Z,5.80
2023-05-09T13:21:17.082Z,4.78
2023-05-09T13:23:46.580Z,5.70
2023-05-09T13:26:16.028Z,4.97
2023-05-09T13:28:48.021Z,5.35
2023-05-09T13:31:17.829Z,5.50
2023-05-09T13:33:49.930Z,5.88
2023-05-09T13:36:21.378Z,6.28
2023-05-09T13:38:51.137Z,5.53
2023-05-09T13:41:24.111Z,5.95
2023-05-09T13:43:56.130Z,5.70
2023-05-09T13:46:25.647Z,5.63
2023-05-09T13:48:55.623Z,5.50
2023-05-09T13:51:25.208Z,5.80
2023-05-09T13:53:54.716Z,5.85
2023-05-09T13:56:24.360Z,5.80
2023-05-09T13:58:56.348Z,5.50
2023-05-09T14:01:26.007Z,6.00
2023-05-09T14:03:55.580Z,5.45
2023-05-09T14:06:25.049Z,5.30
2023-05-09T14:08:54.725Z,5.43
2023-05-09T14:11:25.959Z,5.55
2023-05-09T14:13:57.958Z,4.72
2023-05-09T14:16:27.501Z,6.50
2023-05-09T14:18:57.010Z,5.60
2023-05-09T14:21:27.312Z,5.50
2023-05-09T14:23:57.193Z,5.63
2023-05-09T14:26:26.762Z,5.35
2023-05-09T14:28:59.142Z,5.80
2023-05-09T14:31:29.183Z,6.05
2023-05-09T14:34:00.309Z,5.55
2023-05-09T14:36:32.376Z,5.88
2023-05-09T14:39:02.032Z,5.03
2023-05-09T14:41:31.944Z,5.53
2023-05-09T14:44:04.549Z,4.85
2023-05-09T14:46:34.082Z,5.43
2023-05-09T14:49:04.412Z,5.68
2023-05-09T14:51:34.241Z,5.00
2023-05-09T14:54:04.697Z,4.95
2023-05-09T14:56:34.216Z,5.03
2023-05-09T14:59:06.264Z,4.68
2023-05-09T15:01:35.787Z,5.43
2023-05-09T15:04:05.361Z,5.43
2023-05-09T15:06:34.898Z,5.18
2023-05-09T15:09:04.555Z,4.57
2023-05-09T15:11:46.713Z,4.97
2023-05-09T15:14:20.802Z,5.10
2023-05-09T15:16:51.777Z,5.53
2023-05-09T15:19:22.548Z,5.03
2023-05-09T15:21:52.276Z,4.85
2023-05-09T15:24:21.887Z,4.75
2023-05-09T15:26:51.388Z,5.75
2023-05-09T15:29:24.293Z,5.28
2023-05-09T15:31:53.701Z,4.72
2023-05-09T15:34:23.404Z,4.93
2023-05-09T15:36:52.836Z,5.18
2023-05-09T15:39:24.983Z,4.97
2023-05-09T15:41:54.442Z,5.13
2023-05-09T15:44:26.897Z,5.25
2023-05-09T15:46:57.143Z,5.32
2023-05-09T15:49:26.862Z,4.90
2023-05-09T15:51:56.296Z,5.07
2023-05-09T15:54:26.505Z,4.65
2023-05-09T15:56:56.105Z,5.40
2023-05-09T15:59:28.351Z,4.47
2023-05-09T16:01:58.115Z,4.32
2023-05-09T16:04:27.789Z,4.47
2023-05-09T16:06:58.085Z,4.35
2023-05-09T16:09:27.944Z,4.38
2023-05-09T16:11:57.388Z,4.35
2023-05-09T16:14:29.457Z,4.22
2023-05-09T16:16:59.121Z,4.15
2023-05-09T16:19:28.780Z,4.43
2023-05-09T16:21:58.219Z,4.53
2023-05-09T16:24:27.759Z,4.90
2023-05-09T16:26:57.215Z,4.43
2023-05-09T16:29:29.604Z,4.03
2023-05-09T16:31:59.104Z,4.10
2023-05-09T16:34:28.637Z,3.67
2023-05-09T16:36:58.065Z,4.15
2023-05-09T16:39:28.100Z,4.30
2023-05-09T16:41:58.108Z,4.07
2023-05-09T16:44:30.387Z,4.07
2023-05-09T16:46:59.838Z,3.92
2023-05-09T16:49:29.332Z,4.45
2023-05-09T16:51:59.479Z,3.95
2023-05-09T16:54:28.959Z,3.50
2023-05-09T16:56:58.462Z,3.83
2023-05-09T16:59:30.472Z,3.80
2023-05-09T17:02:00.449Z,4.35
2023-05-09T17:04:30.168Z,3.65
2023-05-09T17:06:59.634Z,3.72
2023-05-09T17:09:29.084Z,3.70
2023-05-09T17:11:59.111Z,3.72
2023-05-09T17:14:31.248Z,3.42
2023-05-09T17:17:00.794Z,3.55
2023-05-09T17:19:30.609Z,3.63
2023-05-09T17:22:04.318Z,3.45
2023-05-09T17:24:33.838Z,3.63
2023-05-09T17:27:03.751Z,3.75
2023-05-09T17:29:36.448Z,3.65
2023-05-09T17:32:05.994Z,3.00
2023-05-09T17:34:35.792Z,3.33
2023-05-09T17:37:05.997Z,3.45
2023-05-09T17:39:35.589Z,3.80
2023-05-09T17:42:05.067Z,3.63
2023-05-09T17:44:37.704Z,3.38
2023-05-09T17:49:36.567Z,3.10
2023-05-09T17:52:05.971Z,3.03
2023-05-09T17:54:36.464Z,3.10
2023-05-09T17:57:06.080Z,3.40
2023-05-09T17:59:40.580Z,3.50
2023-05-09T18:02:10.066Z,3.25
2023-05-09T18:04:39.657Z,3.20
2023-05-09T18:07:11.072Z,4.22
2023-05-09T18:09:40.567Z,3.85
2023-05-09T18:12:10.337Z,5.18
2023-05-09T18:14:42.384Z,4.20
2023-05-09T18:17:11.916Z,4.47
2023-05-09T18:19:42.344Z,4.20
2023-05-09T18:22:12.034Z,4.25
2023-05-09T18:24:41.471Z,3.30
2023-05-09T18:27:11.761Z,3.50
2023-05-09T18:29:46.811Z,3.75
2023-05-09T18:32:17.756Z,2.95
2023-05-09T18:34:48.646Z,2.97
2023-05-09T18:37:19.143Z,3.55
2023-05-09T18:39:48.977Z,3.30
2023-05-09T18:42:18.435Z,2.95
2023-05-09T18:44:50.720Z,3.40
2023-05-09T18:47:20.170Z,2.92
2023-05-09T18:49:49.792Z,2.85
2023-05-09T18:52:20.618Z,3.70
2023-05-09T18:54:50.009Z,3.38
2023-05-09T18:57:20.008Z,3.40
2023-05-09T18:59:53.109Z,3.10
2023-05-09T19:02:23.658Z,3.00
2023-05-09T19:04:53.339Z,2.83
2023-05-09T19:07:22.832Z,3.13
2023-05-09T19:09:52.615Z,2.90
2023-05-09T19:12:22.144Z,3.00
2023-05-09T19:14:54.147Z,2.97
2023-05-09T19:17:23.591Z,3.28
2023-05-09T19:19:53.063Z,3.00
2023-05-09T19:22:22.556Z,2.75
2023-05-09T19:24:52.467Z,2.63
2023-05-09T19:27:21.910Z,2.67
2023-05-09T19:29:54.214Z,2.45
2023-05-09T19:32:23.802Z,2.47
2023-05-09T19:34:53.267Z,3.10
2023-05-09T19:37:22.705Z,2.40
2023-05-09T19:39:52.160Z,3.00
2023-05-09T19:42:21.625Z,2.88
2023-05-09T19:44:53.763Z,2.70
2023-05-09T19:47:23.262Z,2.58
2023-05-09T19:49:53.655Z,2.90
2023-05-09T19:52:23.417Z,2.53
2023-05-09T19:54:53.086Z,2.80
2023-05-09T19:57:22.982Z,2.58
2023-05-09T19:59:55.772Z,2.47
2023-05-09T20:02:25.337Z,2.70
2023-05-09T20:04:54.936Z,2.70
2023-05-09T20:07:24.394Z,3.17
2023-05-09T20:09:54.202Z,2.28
2023-05-09T20:12:23.667Z,2.92
2023-05-09T20:14:55.820Z,2.72
2023-05-09T20:17:25.541Z,2.40
2023-05-09T20:19:55.194Z,2.47
2023-05-09T20:22:24.632Z,2.90
2023-05-09T20:24:54.241Z,2.97
2023-05-09T20:27:23.869Z,2.55
2023-05-09T20:29:56.635Z,2.67
2023-05-09T20:32:26.489Z,2.53
2023-05-09T20:34:56.356Z,2.72
2023-05-09T20:37:25.872Z,2.70
2023-05-09T20:39:55.358Z,2.38
2023-05-09T20:42:25.925Z,2.97
2023-05-09T20:44:58.033Z,2.75
2023-05-09T20:47:27.767Z,2.50
2023-05-09T20:49:58.284Z,2.40
2023-05-09T20:52:28.307Z,2.75
2023-05-09T20:54:59.235Z,2.85
2023-05-09T20:57:28.807Z,2.67
2023-05-09T21:00:00.874Z,2.50
2023-05-09T21:02:31.284Z,2.85
2023-05-09T21:05:00.751Z,2.95
2023-05-09T21:07:32.037Z,2.67
2023-05-09T21:10:01.533Z,2.53
2023-05-09T21:12:32.859Z,2.83
2023-05-09T21:15:05.441Z,2.28
2023-05-09T21:20:04.216Z,2.80
2023-05-09T21:22:33.648Z,2.63
2023-05-09T21:25:03.108Z,2.90
2023-05-09T21:27:33.123Z,2.67
2023-05-09T21:30:05.165Z,2.58
2023-05-09T21:32:34.618Z,2.90
2023-05-09T21:35:04.716Z,2.95
2023-05-09T21:37:35.229Z,2.78
2023-05-09T21:40:05.918Z,2.75
2023-05-09T21:42:36.012Z,2.53
2023-05-09T21:45:09.319Z,2.92
2023-05-09T21:47:39.714Z,2.92
2023-05-09T21:50:09.869Z,2.70
2023-05-09T21:52:39.283Z,2.80
2023-05-09T21:55:08.925Z,2.40
2023-05-09T21:57:38.537Z,3.10
2023-05-09T22:00:15.322Z,2.53
2023-05-09T22:02:45.345Z,3.13
2023-05-09T22:05:14.805Z,3.33
2023-05-09T22:07:44.214Z,3.30
2023-05-09T22:10:14.102Z,2.92
2023-05-09T22:12:43.677Z,3.15
2023-05-09T22:15:15.871Z,3.28
2023-05-09T22:17:45.490Z,2.90
2023-05-09T22:20:15.840Z,3.17
2023-05-09T22:22:45.423Z,2.95
2023-05-09T22:25:14.841Z,2.70
2023-05-09T22:27:44.569Z,3.50
2023-05-09T22:30:17.129Z,3.10
2023-05-09T22:32:46.763Z,3.15
2023-05-09T22:35:16.282Z,3.00
2023-05-09T22:37:45.894Z,3.60
2023-05-09T22:40:16.809Z,3.45
2023-05-09T22:42:46.439Z,3.58
2023-05-09T22:45:18.452Z,3.10
2023-05-09T22:47:48.655Z,3.22
2023-05-09T22:50:18.355Z,3.15
2023-05-09T22:52:48.189Z,3.30
2023-05-09T22:55:18.556Z,3.10
2023-05-09T22:57:48.009Z,3.30
2023-05-09T23:00:20.618Z,2.95
2023-05-09T23:05:19.996Z,3.35
2023-05-09T23:07:49.496Z,3.13
2023-05-09T23:10:19.329Z,3.05
2023-05-09T23:12:48.830Z,3.25
2023-05-09T23:15:21.204Z,3.38
2023-05-09T23:17:50.677Z,3.25
2023-05-09T23:20:20.211Z,3.33
2023-05-09T23:22:49.602Z,3.35
2023-05-09T23:25:19.067Z,3.08
2023-05-09T23:27:48.524Z,3.35
2023-05-09T23:30:18.266Z,3.15
2023-05-09T23:32:50.549Z,3.28
2023-05-09T23:35:21.251Z,3.00
2023-05-09T23:37:50.736Z,2.90
2023-05-09T23:40:20.483Z,3.00
2023-05-09T23:42:50.007Z,3.35
2023-05-09T23:45:19.476Z,3.28
2023-05-09T23:47:51.552Z,3.10
2023-05-09T23:50:21.253Z,2.90
2023-05-09T23:52:51.573Z,3.05
2023-05-09T23:55:21.182Z,2.90
2023-05-09T23:57:50.692Z,2.63
